createdAt,value
2022-08-17T00:01:56.460Z,5.53
2022-08-17T00:04:50.471Z,5.20
2022-08-17T00:07:38.926Z,5.55
2022-08-17T00:10:27.181Z,5.38
2022-08-17T00:13:18.376Z,5.30
2022-08-17T00:16:10.053Z,4.85
2022-08-17T00:19:07.205Z,5.13
2022-08-17T00:22:33.615Z,5.53
2022-08-17T00:25:13.077Z,4.78
2022-08-17T00:28:02.090Z,5.93
2022-08-17T00:30:53.309Z,5.78
2022-08-17T00:33:43.821Z,5.65
2022-08-17T00:36:32.090Z,5.68
2022-08-17T00:39:21.617Z,6.65
2022-08-17T00:42:14.550Z,6.70
2022-08-17T00:45:04.405Z,6.55
2022-08-17T00:47:52.598Z,7.23
2022-08-17T00:50:45.903Z,7.55
2022-08-17T00:53:36.797Z,6.82
2022-08-17T00:56:32.796Z,7.00
2022-08-17T00:59:24.731Z,7.47
2022-08-17T01:02:16.475Z,7.68
2022-08-17T01:05:05.020Z,8.07
2022-08-17T01:07:54.698Z,7.60
2022-08-17T01:10:58.482Z,7.00
2022-08-17T01:13:51.247Z,7.18
2022-08-17T01:16:40.330Z,7.50
2022-08-17T01:19:34.298Z,7.72
2022-08-17T01:22:25.625Z,7.95
2022-08-17T01:25:14.560Z,8.80
2022-08-17T01:28:03.562Z,8.10
2022-08-17T01:30:57.364Z,8.93
2022-08-17T01:33:47.695Z,8.68
2022-08-17T01:36:36.381Z,8.70
2022-08-17T01:39:33.042Z,9.13
2022-08-17T01:42:27.291Z,9.27
2022-08-17T01:45:20.221Z,8.70
2022-08-17T01:48:08.487Z,9.23
2022-08-17T01:50:56.931Z,8.75
2022-08-17T01:53:50.431Z,9.48
2022-08-17T01:56:42.375Z,10.05
2022-08-17T01:59:30.614Z,8.93
2022-08-17T02:02:30.927Z,8.27
2022-08-17T02:05:19.775Z,10.75
2022-08-17T02:08:08.426Z,11.13
2022-08-17T02:11:11.755Z,11.45
2022-08-17T02:14:03.350Z,11.05
2022-08-17T02:16:52.126Z,10.95
2022-08-17T02:19:40.506Z,11.70
2022-08-17T02:22:29.883Z,12.07
2022-08-17T02:25:21.328Z,12.20
2022-08-17T02:28:09.510Z,11.75
2022-08-17T02:31:04.601Z,11.18
2022-08-17T02:33:56.768Z,12.05
2022-08-17T02:36:53.003Z,10.60
2022-08-17T02:39:41.302Z,11.13
2022-08-17T02:42:33.907Z,10.80
2022-08-17T02:45:24.634Z,12.15
2022-08-17T02:51:19.129Z,11.75
2022-08-17T02:54:40.267Z,11.10
2022-08-17T02:57:15.605Z,10.75
2022-08-17T03:00:04.429Z,12.07
2022-08-17T03:02:53.359Z,10.38
2022-08-17T03:05:43.061Z,10.38
2022-08-17T03:08:31.751Z,10.13
2022-08-17T03:11:19.933Z,10.00
2022-08-17T03:14:08.109Z,10.27
2022-08-17T03:16:56.283Z,11.13
2022-08-17T03:19:44.452Z,10.63
2022-08-17T03:22:38.636Z,11.52
2022-08-17T03:25:29.576Z,10.98
2022-08-17T03:28:18.110Z,10.57
2022-08-17T03:31:06.930Z,10.75
2022-08-17T03:33:55.124Z,11.55
2022-08-17T03:36:43.465Z,10.88
2022-08-17T03:39:33.341Z,10.60
2022-08-17T03:42:31.891Z,11.20
2022-08-17T03:45:44.235Z,11.23
2022-08-17T03:48:49.865Z,11.65
2022-08-17T03:51:55.724Z,12.52
2022-08-17T03:55:03.478Z,12.48
2022-08-17T03:57:51.633Z,11.57
2022-08-17T04:00:45.578Z,11.75
2022-08-17T04:03:33.815Z,13.75
2022-08-17T04:06:22.648Z,13.48
2022-08-17T04:09:11.516Z,13.18
2022-08-17T04:12:02.493Z,13.50
2022-08-17T04:14:54.886Z,13.48
2022-08-17T04:17:44.484Z,12.57
2022-08-17T04:20:33.150Z,12.75
2022-08-17T04:23:21.383Z,13.73
2022-08-17T04:26:09.612Z,12.65
2022-08-17T04:29:19.179Z,13.65
2022-08-17T04:32:07.970Z,13.23
2022-08-17T04:34:56.506Z,14.68
2022-08-17T04:37:46.012Z,13.30
2022-08-17T04:40:51.851Z,13.77
2022-08-17T04:43:41.882Z,13.45
2022-08-17T04:46:35.699Z,13.18
2022-08-17T04:49:23.958Z,14.95
2022-08-17T04:52:29.784Z,13.40
2022-08-17T04:55:20.469Z,13.00
2022-08-17T04:58:09.561Z,13.60
2022-08-17T05:00:57.749Z,14.02
2022-08-17T05:03:47.388Z,14.57
2022-08-17T05:06:35.878Z,14.13
2022-08-17T05:09:24.371Z,14.27
2022-08-17T05:12:13.012Z,13.98
2022-08-17T05:15:01.254Z,14.15
2022-08-17T05:17:49.467Z,14.82
2022-08-17T05:20:41.399Z,15.25
2022-08-17T05:23:41.842Z,15.27
2022-08-17T05:26:31.463Z,13.63
2022-08-17T05:29:33.576Z,13.75
2022-08-17T05:32:39.248Z,14.63
2022-08-17T05:35:29.995Z,14.00
2022-08-17T05:38:21.715Z,14.33
2022-08-17T05:41:10.716Z,13.60
2022-08-17T05:43:58.906Z,14.30
2022-08-17T05:46:52.098Z,14.23
2022-08-17T05:49:40.580Z,14.45
2022-08-17T05:52:36.813Z,13.45
2022-08-17T05:55:34.110Z,13.23
2022-08-17T05:58:27.254Z,14.13
2022-08-17T06:01:29.273Z,14.35
2022-08-17T06:04:26.986Z,14.98
2022-08-17T06:07:22.081Z,14.43
2022-08-17T06:10:16.224Z,13.85
2022-08-17T06:13:16.851Z,13.20
2022-08-17T06:16:28.137Z,13.70
2022-08-17T06:19:22.058Z,13.85
2022-08-17T06:22:14.073Z,14.82
2022-08-17T06:25:09.962Z,14.23
2022-08-17T06:28:01.692Z,14.40
2022-08-17T06:31:00.595Z,14.88
2022-08-17T06:33:51.217Z,14.00
2022-08-17T06:36:55.014Z,14.27
2022-08-17T06:39:53.537Z,15.00
2022-08-17T06:43:00.850Z,14.23
2022-08-17T06:46:02.060Z,14.10
2022-08-17T06:49:07.418Z,14.35
2022-08-17T06:52:01.647Z,13.73
2022-08-17T06:54:58.144Z,13.43
2022-08-17T06:57:51.095Z,14.48
2022-08-17T07:00:43.486Z,13.07
2022-08-17T07:03:37.794Z,13.82
2022-08-17T07:06:33.431Z,14.73
2022-08-17T07:09:30.290Z,13.88
2022-08-17T07:12:23.108Z,13.13
2022-08-17T07:15:15.668Z,12.27
2022-08-17T07:18:04.027Z,11.85
2022-08-17T07:20:59.521Z,12.23
2022-08-17T07:24:03.160Z,11.55
2022-08-17T07:27:11.969Z,11.23
2022-08-17T07:30:10.706Z,10.88
2022-08-17T07:33:02.539Z,11.00
2022-08-17T07:35:50.772Z,10.48
2022-08-17T07:38:57.763Z,10.57
2022-08-17T07:41:53.425Z,10.48
2022-08-17T07:44:52.198Z,10.45
2022-08-17T07:47:57.787Z,9.63
2022-08-17T07:50:49.604Z,7.88
2022-08-17T07:53:41.607Z,7.95
2022-08-17T07:56:36.279Z,7.20
2022-08-17T07:59:27.225Z,6.22
2022-08-17T08:02:31.650Z,6.18
2022-08-17T08:08:35.001Z,6.35
2022-08-17T08:11:41.278Z,6.15
2022-08-17T08:14:34.058Z,7.25
2022-08-17T08:17:27.840Z,5.95
2022-08-17T08:20:35.057Z,6.25
2022-08-17T08:23:38.017Z,6.03
2022-08-17T08:26:33.431Z,5.82
2022-08-17T08:29:29.364Z,5.43
2022-08-17T08:32:23.057Z,5.00
2022-08-17T08:35:18.409Z,5.00
2022-08-17T08:38:15.679Z,5.22
2022-08-17T08:41:17.193Z,5.00
2022-08-17T08:44:18.373Z,4.40
2022-08-17T08:47:19.237Z,4.32
2022-08-17T08:50:37.554Z,4.68
2022-08-17T08:53:36.348Z,4.10
2022-08-17T08:56:32.657Z,4.60
2022-08-17T08:59:28.370Z,4.07
2022-08-17T09:02:26.278Z,4.93
2022-08-17T09:05:26.915Z,4.50
2022-08-17T09:08:25.387Z,5.82
2022-08-17T09:11:22.857Z,4.35
2022-08-17T09:14:17.191Z,4.18
2022-08-17T09:17:13.940Z,3.88
2022-08-17T09:20:27.623Z,3.25
2022-08-17T09:23:30.347Z,3.17
2022-08-17T09:26:22.905Z,3.55
2022-08-17T09:29:15.713Z,3.38
2022-08-17T09:32:10.587Z,3.17
2022-08-17T09:35:06.439Z,3.20
2022-08-17T09:38:03.900Z,3.10
2022-08-17T09:40:58.198Z,2.90
2022-08-17T09:43:55.106Z,2.75
2022-08-17T09:46:51.624Z,2.75
2022-08-17T09:49:45.297Z,2.63
2022-08-17T09:52:33.660Z,3.08
2022-08-17T09:55:27.433Z,3.10
2022-08-17T09:58:24.124Z,3.15
2022-08-17T10:01:26.488Z,2.47
2022-08-17T10:04:32.619Z,2.53
2022-08-17T10:07:30.456Z,2.58
2022-08-17T10:10:24.909Z,2.60
2022-08-17T10:13:20.738Z,2.35
2022-08-17T10:16:21.953Z,2.30
2022-08-17T10:19:17.088Z,2.30
2022-08-17T10:22:34.665Z,2.13
2022-08-17T10:25:54.511Z,2.10
2022-08-17T10:28:50.474Z,2.10
2022-08-17T10:31:45.567Z,2.13
2022-08-17T10:34:53.722Z,2.50
2022-08-17T10:38:17.207Z,2.25
2022-08-17T10:41:30.104Z,2.40
2022-08-17T10:44:39.558Z,2.40
2022-08-17T10:48:04.824Z,2.10
2022-08-17T10:51:03.560Z,2.35
2022-08-17T10:53:57.777Z,1.90
2022-08-17T10:56:51.356Z,2.38
2022-08-17T10:59:52.963Z,2.40
2022-08-17T11:02:51.037Z,2.50
2022-08-17T11:06:01.008Z,2.60
2022-08-17T11:09:20.411Z,2.50
2022-08-17T11:12:25.262Z,2.28
2022-08-17T11:15:33.933Z,2.30
2022-08-17T11:18:39.843Z,2.38
2022-08-17T11:21:52.789Z,2.50
2022-08-17T11:24:46.848Z,2.53
2022-08-17T11:27:37.210Z,2.40
2022-08-17T11:31:02.459Z,2.75
2022-08-17T11:33:59.174Z,2.38
2022-08-17T11:37:00.376Z,2.25
2022-08-17T11:40:27.328Z,2.33
2022-08-17T11:43:55.366Z,2.58
2022-08-17T11:47:23.286Z,2.80
2022-08-17T11:50:44.042Z,2.17
2022-08-17T11:54:32.340Z,2.38
2022-08-17T11:58:01.575Z,2.50
2022-08-17T12:01:00.277Z,2.30
2022-08-17T12:03:57.757Z,2.60
2022-08-17T12:06:51.236Z,2.38
2022-08-17T12:09:43.347Z,2.30
2022-08-17T12:12:35.760Z,2.70
2022-08-17T12:15:30.816Z,2.10
2022-08-17T12:18:24.538Z,2.20
2022-08-17T12:21:33.006Z,2.45
2022-08-17T12:24:44.703Z,2.50
2022-08-17T12:28:04.632Z,2.30
2022-08-17T12:30:51.281Z,2.10
2022-08-17T12:33:44.633Z,2.35
2022-08-17T12:36:34.996Z,2.22
2022-08-17T12:39:25.173Z,1.90
2022-08-17T12:42:24.473Z,2.20
2022-08-17T12:45:23.563Z,2.40
2022-08-17T12:48:14.258Z,2.65
2022-08-17T12:51:07.796Z,2.60
2022-08-17T12:53:57.331Z,2.33
2022-08-17T12:56:47.652Z,2.45
2022-08-17T12:59:41.667Z,2.30
2022-08-17T13:02:41.039Z,2.60
2022-08-17T13:05:34.043Z,2.47
2022-08-17T13:08:26.475Z,2.33
2022-08-17T13:11:24.143Z,2.30
2022-08-17T13:14:12.431Z,2.25
2022-08-17T13:17:08.575Z,2.33
2022-08-17T13:19:59.815Z,2.45
2022-08-17T13:22:55.177Z,2.30
2022-08-17T13:25:44.554Z,2.50
2022-08-17T13:28:36.406Z,2.20
2022-08-17T13:31:41.406Z,2.35
2022-08-17T13:35:05.270Z,2.45
2022-08-17T13:38:01.247Z,2.42
2022-08-17T13:40:53.172Z,2.35
2022-08-17T13:43:45.966Z,2.47
2022-08-17T13:46:35.458Z,2.22
2022-08-17T13:49:24.009Z,2.75
2022-08-17T13:52:38.908Z,2.30
2022-08-17T13:55:29.449Z,2.08
2022-08-17T13:58:23.372Z,2.40
2022-08-17T14:01:33.536Z,2.13
2022-08-17T14:04:23.863Z,2.10
2022-08-17T14:07:28.953Z,2.40
2022-08-17T14:10:19.075Z,2.17
2022-08-17T14:13:07.539Z,2.05
2022-08-17T14:15:56.872Z,1.90
2022-08-17T14:18:56.749Z,2.05
2022-08-17T14:21:47.546Z,1.85
2022-08-17T14:24:44.637Z,2.00
2022-08-17T14:27:43.268Z,1.80
2022-08-17T14:30:42.837Z,2.07
2022-08-17T14:33:31.078Z,1.80
2022-08-17T14:36:20.632Z,2.20
2022-08-17T14:39:09.263Z,2.20
2022-08-17T14:42:02.098Z,2.05
2022-08-17T14:44:51.018Z,2.10
2022-08-17T14:47:41.790Z,2.27
2022-08-17T14:50:29.973Z,1.90
2022-08-17T14:53:21.504Z,1.90
2022-08-17T14:56:09.707Z,1.90
2022-08-17T14:58:57.995Z,1.77
2022-08-17T15:01:47.731Z,1.70
2022-08-17T15:04:35.994Z,2.33
2022-08-17T15:07:24.263Z,1.80
2022-08-17T15:10:21.259Z,2.20
2022-08-17T15:13:18.034Z,1.98
2022-08-17T15:16:07.339Z,2.28
2022-08-17T15:18:55.505Z,2.28
2022-08-17T15:21:44.863Z,2.00
2022-08-17T15:24:33.578Z,2.00
2022-08-17T15:27:30.784Z,2.28
2022-08-17T15:30:21.406Z,2.40
2022-08-17T15:33:14.308Z,1.90
2022-08-17T15:36:07.545Z,2.08
2022-08-17T15:38:55.745Z,2.00
2022-08-17T15:41:43.909Z,1.95
2022-08-17T15:44:35.115Z,2.85
2022-08-17T15:47:23.518Z,1.90
2022-08-17T15:50:12.087Z,2.30
2022-08-17T15:53:02.129Z,2.08
2022-08-17T15:55:50.323Z,2.20
2022-08-17T15:58:41.899Z,2.17
2022-08-17T16:03:01.359Z,2.22
2022-08-17T16:04:43.854Z,1.90
2022-08-17T16:07:32.885Z,1.88
2022-08-17T16:10:21.950Z,1.97
2022-08-17T16:13:24.064Z,1.73
2022-08-17T16:16:12.604Z,1.98
2022-08-17T16:19:02.386Z,2.20
2022-08-17T16:21:50.568Z,2.15
2022-08-17T16:24:45.931Z,1.80
2022-08-17T16:27:46.030Z,2.05
2022-08-17T16:30:34.609Z,1.80
2022-08-17T16:33:22.832Z,1.93
2022-08-17T16:36:12.437Z,2.10
2022-08-17T16:39:01.416Z,1.85
2022-08-17T16:41:50.326Z,1.83
2022-08-17T16:44:38.530Z,2.17
2022-08-17T16:47:27.102Z,1.98
2022-08-17T16:50:18.028Z,2.05
2022-08-17T16:53:11.605Z,2.10
2022-08-17T16:55:59.806Z,2.40
2022-08-17T16:58:48.121Z,2.45
2022-08-17T17:01:41.733Z,2.80
2022-08-17T17:04:29.960Z,2.05
2022-08-17T17:07:49.564Z,2.40
2022-08-17T17:10:44.639Z,2.72
2022-08-17T17:13:38.368Z,2.67
2022-08-17T17:16:35.885Z,2.72
2022-08-17T17:19:35.032Z,2.15
2022-08-17T17:22:29.552Z,2.80
2022-08-17T17:25:25.873Z,3.00
2022-08-17T17:28:27.634Z,2.63
2022-08-17T17:31:18.520Z,2.17
2022-08-17T17:34:11.158Z,2.40
2022-08-17T17:37:02.569Z,2.30
2022-08-17T17:39:53.979Z,2.90
2022-08-17T17:42:45.395Z,2.90
2022-08-17T17:45:42.509Z,2.75
2022-08-17T17:48:31.312Z,2.55
2022-08-17T17:52:01.991Z,3.05
2022-08-17T17:54:42.328Z,2.50
2022-08-17T17:57:42.165Z,2.65
2022-08-17T18:00:39.768Z,2.75
2022-08-17T18:03:41.468Z,2.90
2022-08-17T18:06:45.396Z,2.92
2022-08-17T18:09:51.618Z,2.78
2022-08-17T18:12:46.643Z,2.30
2022-08-17T18:15:41.487Z,2.75
2022-08-17T18:18:44.358Z,3.05
2022-08-17T18:21:37.826Z,2.63
2022-08-17T18:24:32.736Z,2.60
2022-08-17T18:27:31.858Z,2.70
2022-08-17T18:30:29.806Z,2.93
2022-08-17T18:33:26.578Z,2.88
2022-08-17T18:36:27.785Z,3.20
2022-08-17T18:39:17.705Z,3.10
2022-08-17T18:42:23.431Z,3.20
2022-08-17T18:45:11.618Z,2.85
2022-08-17T18:48:00.145Z,2.47
2022-08-17T18:50:53.407Z,2.83
2022-08-17T18:53:42.338Z,2.92
2022-08-17T18:56:33.210Z,3.08
2022-08-17T18:59:35.536Z,3.20
2022-08-17T19:02:44.215Z,3.00
2022-08-17T19:05:36.398Z,2.88
2022-08-17T19:08:35.595Z,3.35
2022-08-17T19:11:30.066Z,3.80
2022-08-17T19:14:20.143Z,2.88
2022-08-17T19:23:13.692Z,3.20
2022-08-17T19:26:51.358Z,3.20
2022-08-17T19:29:25.691Z,3.10
2022-08-17T19:32:17.422Z,3.10
2022-08-17T19:35:10.485Z,3.03
2022-08-17T19:38:12.862Z,3.80
2022-08-17T19:41:08.320Z,3.45
2022-08-17T19:44:37.574Z,3.25
2022-08-17T19:47:53.778Z,3.92
2022-08-17T19:50:54.256Z,3.50
2022-08-17T19:54:04.896Z,3.90
2022-08-17T19:57:03.191Z,3.17
2022-08-17T19:59:55.497Z,3.22
2022-08-17T20:02:51.175Z,3.20
2022-08-17T20:06:10.949Z,3.70
2022-08-17T20:09:00.361Z,3.80
2022-08-17T20:11:53.899Z,3.85
2022-08-17T20:14:55.252Z,3.63
2022-08-17T20:17:47.843Z,3.95
2022-08-17T20:20:42.400Z,4.07
2022-08-17T20:23:46.890Z,4.20
2022-08-17T20:26:58.951Z,4.18
2022-08-17T20:30:09.190Z,3.90
2022-08-17T20:32:59.532Z,3.70
2022-08-17T20:38:54.597Z,4.15
2022-08-17T20:42:05.806Z,3.97
2022-08-17T20:44:57.878Z,3.97
2022-08-17T20:48:15.549Z,3.67
2022-08-17T20:51:12.298Z,3.90
2022-08-17T20:54:26.329Z,3.70
2022-08-17T20:57:51.358Z,3.90
2022-08-17T21:00:45.499Z,3.38
2022-08-17T21:03:52.379Z,3.72
2022-08-17T21:07:17.461Z,3.95
2022-08-17T21:10:15.473Z,3.83
2022-08-17T21:13:44.729Z,3.95
2022-08-17T21:16:42.265Z,4.68
2022-08-17T21:20:00.627Z,4.00
2022-08-17T21:23:03.637Z,4.47
2022-08-17T21:26:17.468Z,4.18
2022-08-17T21:29:30.290Z,4.10
2022-08-17T21:32:30.312Z,4.47
2022-08-17T21:35:30.501Z,4.53
2022-08-17T21:38:21.651Z,3.77
2022-08-17T21:41:22.114Z,4.40
2022-08-17T21:47:16.613Z,4.00
2022-08-17T21:50:17.198Z,4.30
2022-08-17T21:53:08.764Z,4.47
2022-08-17T21:55:56.975Z,4.63
2022-08-17T21:58:48.603Z,4.18
2022-08-17T22:01:40.297Z,4.28
2022-08-17T22:04:31.462Z,4.85
2022-08-17T22:07:35.898Z,4.35
2022-08-17T22:10:35.361Z,4.20
2022-08-17T22:13:29.584Z,4.20
2022-08-17T22:16:29.067Z,4.40
2022-08-17T22:19:18.813Z,4.37
2022-08-17T22:22:10.514Z,3.95
2022-08-17T22:25:01.817Z,4.28
2022-08-17T22:27:57.870Z,4.78
2022-08-17T22:31:01.864Z,4.30
2022-08-17T22:33:51.995Z,5.15
2022-08-17T22:36:41.842Z,4.43
2022-08-17T22:39:42.499Z,4.65
2022-08-17T22:42:31.227Z,4.82
2022-08-17T22:45:20.901Z,4.55
2022-08-17T22:48:09.145Z,5.17
2022-08-17T22:51:12.678Z,4.70
2022-08-17T22:54:26.727Z,5.00
2022-08-17T22:57:34.540Z,4.53
2022-08-17T23:00:33.301Z,4.90
2022-08-17T23:03:23.771Z,5.00
2022-08-17T23:09:03.575Z,5.72
2022-08-17T23:11:56.477Z,4.53
2022-08-17T23:14:48.005Z,5.90
2022-08-17T23:17:38.587Z,5.53
2022-08-17T23:23:15.768Z,5.40
2022-08-17T23:26:04.000Z,5.05
2022-08-17T23:28:52.311Z,5.07
2022-08-17T23:31:40.832Z,5.60
2022-08-17T23:34:30.361Z,5.32
2022-08-17T23:37:21.122Z,5.25
2022-08-17T23:40:10.491Z,5.22
2022-08-17T23:42:59.415Z,5.43
2022-08-17T23:45:48.053Z,5.32
2022-08-17T23:48:38.570Z,5.20
2022-08-17T23:51:30.328Z,5.07
2022-08-17T23:54:24.198Z,4.82
2022-08-17T23:57:13.572Z,5.38
